Los Lunas ASC

2021-07-24 21:50:00

  • imperial
Date Time Air Temperature Relative Humidity Dewpoint Heat Index Wind Speed Wind Dir. Rain Solar Radiation Soil Temperature
2m 2m 3m 3m 10cm
US/Mountain F % F F MPH deg in MJ/m^2 F
max avg avg
2021-07-23 22:00:00 63.4 86.1 59.2 63.4 0.0 2.8 0.5 218.0 238.6 0.00 0.0020000 82.5
2021-07-23 22:05:00 63.2 87.7 59.5 63.2 0.0 0.0 0.0 51.2 0.0 0.00 0.0020000 82.3
2021-07-23 22:10:00 63.3 87.3 59.5 63.3 0.0 0.8 0.0 138.6 67.8 0.00 0.0020000 82.2
2021-07-23 22:15:00 63.1 89.2 59.8 63.1 0.0 0.0 0.0 65.2 0.0 0.00 0.0020000 82.0
2021-07-23 22:20:00 62.7 89.4 59.5 62.7 0.0 0.0 0.0 109.4 0.0 0.00 0.0020000 81.9
2021-07-23 22:25:00 62.6 89.6 59.5 62.6 0.0 0.0 0.0 105.0 0.0 0.00 0.0020000 81.8
2021-07-23 22:30:00 62.5 91.5 60.0 62.5 0.0 0.0 0.0 65.4 0.0 0.00 0.0020000 81.6
2021-07-23 22:35:00 62.3 91.4 59.8 62.3 0.0 0.0 0.0 128.8 0.0 0.00 0.0020000 81.5
2021-07-23 22:40:00 62.1 91.5 59.6 62.1 0.0 0.0 0.0 272.6 0.0 0.00 0.0020000 81.4
2021-07-23 22:45:00 61.9 92.6 59.8 61.9 0.0 0.0 0.0 9.7 0.0 0.00 0.0020000 81.3
2021-07-23 22:50:00 61.8 92.7 59.7 61.8 0.0 0.0 0.0 331.5 0.0 0.00 0.0020000 81.2
2021-07-23 22:55:00 61.7 92.6 59.6 61.7 0.0 0.0 0.0 59.6 0.0 0.00 0.0020000 81.1
2021-07-23 23:00:00 61.8 92.7 59.6 61.8 0.0 0.0 0.0 324.3 0.0 0.00 0.0030000 80.9
2021-07-23 23:05:00 61.6 93.5 59.7 61.6 0.0 0.0 0.0 152.7 0.0 0.00 0.0030000 80.9
2021-07-23 23:10:00 61.6 94.2 59.9 61.6 0.0 0.0 0.0 251.9 0.0 0.00 0.0030000 80.7
2021-07-23 23:15:00 61.5 94.5 59.9 61.5 0.0 0.0 0.0 133.5 0.0 0.00 0.0030000 80.6
2021-07-23 23:20:00 61.4 94.6 59.9 61.4 0.0 0.0 0.0 143.3 0.0 0.00 0.0030000 80.5
2021-07-23 23:25:00 61.6 95.2 60.2 61.6 0.0 0.0 0.0 48.2 0.0 0.00 0.0030000 80.4
2021-07-23 23:30:00 61.6 95.5 60.3 61.6 0.0 0.0 0.0 60.4 0.0 0.00 0.0030000 80.3
2021-07-23 23:35:00 61.8 95.3 60.4 61.8 0.0 0.0 0.0 174.3 0.0 0.00 0.0030000 80.3
2021-07-23 23:40:00 61.7 94.7 60.2 61.7 0.0 0.0 0.0 217.7 0.0 0.00 0.0030000 80.2
2021-07-23 23:45:00 61.7 94.6 60.2 61.7 0.0 0.0 0.0 44.9 0.0 0.00 0.0030000 80.1
2021-07-23 23:50:00 61.8 94.3 60.2 61.8 0.0 1.0 0.1 340.3 310.7 0.00 0.0030000 80.0
2021-07-23 23:55:00 62.0 93.8 60.2 62.0 0.0 0.0 0.0 308.8 0.0 0.00 0.0030000 79.9
2021-07-24 00:00:00 62.0 93.6 60.1 62.0 0.0 0.0 0.0 257.1 0.0 0.00 0.0030000 79.8
2021-07-24 00:05:00 62.1 93.8 60.3 62.1 0.0 0.0 0.0 27.3 0.0 0.00 0.0030000 79.8
2021-07-24 00:10:00 62.1 93.8 60.3 62.1 0.0 0.0 0.0 120.2 0.0 0.00 0.0030000 79.7
2021-07-24 00:15:00 62.2 94.1 60.5 62.2 0.0 0.0 0.0 78.2 0.0 0.00 0.0030000 79.6
2021-07-24 00:20:00 62.1 93.7 60.2 62.1 0.0 0.0 0.0 78.2 0.0 0.00 0.0030000 79.5
2021-07-24 00:25:00 61.8 94.3 60.2 61.8 0.0 0.0 0.0 120.0 0.0 0.00 0.0030000 79.4
2021-07-24 00:30:00 61.7 93.7 59.8 61.7 0.0 0.0 0.0 225.9 0.0 0.00 0.0030000 79.4
2021-07-24 00:35:00 61.4 93.4 59.5 61.4 0.0 0.0 0.0 225.9 0.0 0.00 0.0020000 79.3
2021-07-24 00:40:00 61.3 93.4 59.4 61.3 0.0 0.0 0.0 225.9 0.0 0.00 0.0020000 79.2
2021-07-24 00:45:00 61.3 94.7 59.8 61.3 0.0 0.0 0.0 309.6 0.0 0.00 0.0020000 79.1
2021-07-24 00:50:00 61.4 95.0 60.0 61.4 0.0 0.0 0.0 293.8 0.0 0.00 0.0020000 79.1
2021-07-24 00:55:00 61.5 95.1 60.1 61.5 0.0 0.0 0.0 264.8 0.0 0.00 0.0020000 79.0
2021-07-24 01:00:00 61.1 95.4 59.8 61.1 0.0 0.0 0.0 239.2 0.0 0.00 0.0020000 78.9
2021-07-24 01:05:00 61.3 95.4 60.0 61.3 0.0 0.0 0.0 239.1 0.0 0.00 0.0020000 78.8
2021-07-24 01:10:00 61.1 95.6 59.9 61.1 0.0 0.0 0.0 239.1 0.0 0.00 0.0020000 78.7
2021-07-24 01:15:00 61.3 96.0 60.1 61.3 0.0 0.0 0.0 235.3 0.0 0.00 0.0020000 78.7
2021-07-24 01:20:00 61.1 95.9 60.0 61.1 0.0 0.0 0.0 219.8 0.0 0.00 0.0020000 78.6
2021-07-24 01:25:00 60.9 96.0 59.7 60.9 0.0 0.0 0.0 246.9 0.0 0.00 0.0020000 78.5
2021-07-24 01:30:00 60.8 95.8 59.6 60.8 0.0 0.0 0.0 242.2 0.0 0.00 0.0020000 78.5
2021-07-24 01:35:00 60.7 96.4 59.7 60.7 0.0 0.0 0.0 286.4 0.0 0.00 0.0020000 78.4
2021-07-24 01:40:00 60.9 96.4 59.9 60.9 0.0 0.0 0.0 231.0 0.0 0.00 0.0020000 78.3
2021-07-24 01:45:00 61.3 96.8 60.4 61.3 0.0 0.0 0.0 281.5 0.0 0.00 0.0020000 78.2
2021-07-24 01:50:00 61.3 96.7 60.3 61.3 0.0 0.0 0.0 116.6 0.0 0.00 0.0020000 78.2
2021-07-24 01:55:00 61.4 96.4 60.4 61.4 0.0 0.0 0.0 116.5 0.0 0.00 0.0020000 78.1
2021-07-24 02:00:00 61.3 96.5 60.3 61.3 0.0 0.0 0.0 132.6 0.0 0.00 0.0020000 78.0
2021-07-24 02:05:00 61.4 96.9 60.5 61.4 0.0 0.0 0.0 127.9 0.0 0.00 0.0020000 78.0
2021-07-24 02:10:00 61.6 96.6 60.7 61.6 0.0 0.0 0.0 101.0 0.0 0.00 0.0020000 77.9
2021-07-24 02:15:00 61.4 96.7 60.5 61.4 0.0 0.0 0.0 233.1 0.0 0.00 0.0020000 77.8
2021-07-24 02:20:00 61.4 96.4 60.4 61.4 0.0 0.0 0.0 230.2 0.0 0.00 0.0020000 77.8
2021-07-24 02:25:00 61.4 96.6 60.5 61.4 0.0 0.0 0.0 106.5 0.0 0.00 0.0020000 77.7
2021-07-24 02:30:00 61.7 96.7 60.7 61.7 0.0 0.0 0.0 154.3 0.0 0.00 0.0020000 77.6
2021-07-24 02:35:00 61.6 96.6 60.7 61.6 0.0 0.0 0.0 129.4 0.0 0.00 0.0020000 77.6
2021-07-24 02:40:00 61.4 96.5 60.4 61.4 0.0 0.0 0.0 105.4 0.0 0.00 0.0020000 77.6
2021-07-24 02:45:00 61.4 96.5 60.4 61.4 0.0 0.0 0.0 266.4 0.0 0.00 0.0020000 77.5
2021-07-24 02:50:00 61.6 96.8 60.7 61.6 0.0 0.0 0.0 84.0 0.0 0.00 0.0020000 77.4
2021-07-24 02:55:00 61.7 96.7 60.7 61.7 0.0 0.0 0.0 23.4 0.0 0.00 0.0020000 77.4
2021-07-24 03:00:00 61.4 96.5 60.4 61.4 0.0 0.0 0.0 345.6 0.0 0.00 0.0020000 77.3
2021-07-24 03:05:00 61.3 96.7 60.4 61.3 0.0 0.0 0.0 113.0 0.0 0.00 0.0020000 77.3
2021-07-24 03:10:00 61.3 96.9 60.4 61.3 0.0 0.0 0.0 19.5 0.0 0.00 0.0020000 77.2
2021-07-24 03:15:00 61.2 96.5 60.2 61.2 0.0 0.0 0.0 3.2 0.0 0.00 0.0020000 77.2
2021-07-24 03:20:00 61.3 95.8 60.0 61.3 0.0 1.3 0.0 6.0 297.4 0.00 0.0020000 77.1
2021-07-24 03:25:00 61.2 95.3 59.8 61.2 0.8 0.8 0.1 19.6 21.7 0.00 0.0010000 77.1
2021-07-24 03:30:00 61.4 94.4 59.8 61.4 0.0 0.8 0.0 3.2 43.2 0.00 0.0020000 77.0
2021-07-24 03:35:00 61.4 94.3 59.7 61.4 0.0 0.0 0.0 6.2 0.0 0.00 0.0010000 76.9
2021-07-24 03:40:00 61.7 94.3 60.0 61.7 1.5 1.7 0.4 49.0 29.0 0.00 0.0020000 76.9
2021-07-24 03:45:00 61.9 94.0 60.1 61.9 0.0 1.3 0.3 45.1 14.2 0.00 0.0020000 76.8
2021-07-24 03:50:00 62.3 93.2 60.3 62.3 0.0 0.0 0.0 35.3 0.0 0.00 0.0020000 76.8
2021-07-24 03:55:00 62.1 91.8 59.7 62.1 0.0 1.7 0.5 18.4 22.1 0.00 0.0020000 76.7
2021-07-24 04:00:00 62.2 91.8 59.8 62.2 0.0 1.5 0.4 21.0 20.4 0.00 0.0020000 76.7
2021-07-24 04:05:00 62.0 92.4 59.8 62.0 0.0 0.0 0.0 175.3 0.0 0.00 0.0020000 76.6
2021-07-24 04:10:00 61.9 93.7 60.1 61.9 0.0 0.0 0.0 154.9 0.0 0.00 0.0020000 76.6
2021-07-24 04:15:00 61.9 94.0 60.1 61.9 0.0 0.0 0.0 142.0 0.0 0.00 0.0020000 76.5
2021-07-24 04:20:00 61.6 93.8 59.8 61.6 0.0 0.0 0.0 180.7 0.0 0.00 0.0020000 76.5
2021-07-24 04:25:00 61.5 93.8 59.7 61.5 0.0 0.0 0.0 170.1 0.0 0.00 0.0020000 76.4
2021-07-24 04:30:00 61.4 93.8 59.6 61.4 0.8 1.2 0.2 162.5 165.0 0.00 0.0020000 76.4
2021-07-24 04:35:00 61.4 94.1 59.7 61.4 0.0 0.0 0.0 312.2 0.0 0.00 0.0020000 76.4
2021-07-24 04:40:00 61.4 94.0 59.6 61.4 0.0 0.0 0.0 227.3 0.0 0.00 0.0020000 76.3
2021-07-24 04:45:00 61.6 94.3 60.0 61.6 0.0 0.8 0.0 209.1 228.8 0.00 0.0020000 76.2
2021-07-24 04:50:00 61.3 94.5 59.7 61.3 0.0 0.0 0.0 184.2 0.0 0.00 0.0020000 76.2
2021-07-24 04:55:00 61.2 94.3 59.5 61.2 0.0 0.0 0.0 223.5 0.0 0.00 0.0020000 76.2
2021-07-24 05:00:00 61.2 94.1 59.5 61.2 0.0 0.0 0.0 200.6 0.0 0.00 0.0020000 76.1
2021-07-24 05:05:00 61.3 94.1 59.6 61.3 0.0 0.0 0.0 227.9 0.0 0.00 0.0020000 76.1
2021-07-24 05:10:00 61.4 93.9 59.6 61.4 0.0 0.8 0.0 250.3 241.0 0.00 0.0020000 76.0
2021-07-24 05:15:00 61.4 93.1 59.4 61.4 0.0 1.2 0.1 241.4 256.8 0.00 0.0020000 76.0
2021-07-24 05:20:00 61.6 93.3 59.7 61.6 0.0 0.0 0.0 211.2 0.0 0.00 0.0020000 76.0
2021-07-24 05:25:00 61.8 93.3 59.8 61.8 0.0 0.0 0.0 288.9 0.0 0.00 0.0020000 75.9
2021-07-24 05:30:00 61.7 93.6 59.9 61.7 0.0 0.0 0.0 247.8 0.0 0.00 0.0020000 75.9
2021-07-24 05:35:00 61.9 94.0 60.2 61.9 0.0 0.0 0.0 229.2 0.0 0.00 0.0020000 75.8
2021-07-24 05:40:00 62.0 93.9 60.3 62.0 0.0 0.0 0.0 242.1 0.0 0.00 0.0020000 75.8
2021-07-24 05:45:00 62.1 94.1 60.4 62.1 0.0 0.0 0.0 345.6 0.0 0.00 0.0020000 75.8
2021-07-24 05:50:00 62.3 94.3 60.6 62.3 0.0 0.0 0.0 191.3 0.0 0.00 0.0020000 75.7
2021-07-24 05:55:00 62.1 94.3 60.5 62.1 0.0 0.0 0.0 120.0 0.0 0.00 0.0020000 75.7
2021-07-24 06:00:00 62.1 94.5 60.5 62.1 0.0 0.0 0.0 338.8 0.0 0.00 0.0020000 75.7
2021-07-24 06:05:00 62.2 94.5 60.6 62.2 0.0 0.0 0.0 181.1 0.0 0.00 0.0030000 75.6
2021-07-24 06:10:00 62.1 94.9 60.6 62.1 0.0 0.0 0.0 168.0 0.0 0.00 0.0040000 75.6
2021-07-24 06:15:00 61.9 95.0 60.4 61.9 0.0 0.8 0.0 152.1 207.5 0.00 0.0050000 75.6
2021-07-24 06:20:00 62.0 94.8 60.5 62.0 0.0 0.0 0.0 217.5 0.0 0.00 0.0070000 75.5
2021-07-24 06:25:00 62.3 95.1 60.9 62.3 0.0 1.0 0.1 205.7 168.7 0.00 0.0160000 75.5
2021-07-24 06:30:00 62.0 94.7 60.5 62.0 0.0 0.0 0.0 189.1 0.0 0.00 0.0280000 75.5
2021-07-24 06:35:00 62.0 94.6 60.5 62.0 0.0 0.0 0.0 180.3 0.0 0.00 0.0390000 75.4
2021-07-24 06:40:00 62.3 94.6 60.7 62.3 0.0 0.0 0.0 142.7 0.0 0.00 0.0500000 75.4
2021-07-24 06:45:00 62.5 94.3 60.8 62.5 0.0 0.0 0.0 145.1 0.0 0.00 0.0590000 75.4
2021-07-24 06:50:00 62.6 93.7 60.8 62.6 0.0 0.0 0.0 203.4 0.0 0.00 0.0570000 75.3
2021-07-24 06:55:00 62.7 93.6 60.8 62.7 0.0 0.8 0.1 164.0 191.5 0.00 0.0570000 75.3
2021-07-24 07:00:00 62.9 94.2 61.2 62.9 0.0 1.0 0.1 102.0 159.7 0.00 0.0600000 75.3
2021-07-24 07:05:00 62.8 93.1 60.8 62.8 0.0 0.8 0.1 180.1 204.7 0.00 0.0560000 75.3
2021-07-24 07:10:00 62.8 92.9 60.7 62.8 0.0 1.0 0.0 182.8 184.4 0.00 0.0520000 75.2
2021-07-24 07:15:00 62.8 92.8 60.6 62.8 0.0 0.0 0.0 178.9 0.0 0.00 0.0500000 75.2
2021-07-24 07:20:00 63.0 93.3 61.1 63.0 0.0 0.0 0.0 94.2 0.0 0.00 0.0410000 75.2
2021-07-24 07:25:00 63.1 92.6 60.9 63.1 0.0 1.0 0.0 173.0 79.4 0.00 0.0500000 75.2
2021-07-24 07:30:00 63.1 91.3 60.5 63.1 0.0 1.9 0.4 167.9 208.3 0.00 0.0520000 75.2
2021-07-24 07:35:00 63.4 91.4 60.8 63.4 0.0 0.8 0.0 182.3 190.9 0.00 0.0550000 75.2
2021-07-24 07:40:00 63.6 91.3 61.0 63.6 0.0 0.0 0.0 264.1 0.0 0.00 0.0540000 75.2
2021-07-24 07:45:00 64.0 90.6 61.2 64.0 0.0 0.0 0.0 70.9 0.0 0.00 0.0620000 75.2
2021-07-24 07:50:00 64.2 90.3 61.3 64.2 0.0 1.0 0.0 106.3 40.8 0.00 0.0690000 75.2
2021-07-24 07:55:00 64.3 88.9 60.9 64.3 0.0 0.0 0.0 179.9 0.0 0.00 0.1080000 75.2
2021-07-24 08:00:00 64.8 87.0 60.8 64.8 0.0 0.0 0.0 177.2 0.0 0.00 0.1260000 75.1
2021-07-24 08:05:00 64.8 86.1 60.6 64.8 0.0 0.0 0.0 339.7 0.0 0.00 0.1140000 75.2
2021-07-24 08:10:00 65.3 85.2 60.7 65.3 0.0 0.8 0.0 173.2 21.3 0.00 0.1360000 75.2
2021-07-24 08:15:00 65.5 86.7 61.4 65.5 0.0 0.8 0.0 62.1 37.7 0.00 0.1950000 75.2
2021-07-24 08:20:00 65.8 82.5 60.3 65.8 0.0 1.2 0.1 203.2 113.6 0.00 0.2500000 75.2
2021-07-24 08:25:00 66.3 82.6 60.9 66.3 0.0 0.8 0.0 119.6 100.8 0.00 0.2230000 75.2
2021-07-24 08:30:00 66.7 81.6 60.9 66.7 0.0 0.0 0.0 156.0 0.0 0.00 0.2020000 75.3
2021-07-24 08:35:00 66.2 80.2 60.0 66.2 0.0 2.4 0.3 169.5 157.3 0.00 0.1410000 75.3
2021-07-24 08:40:00 66.2 84.4 61.4 66.2 0.0 0.0 0.0 116.1 0.0 0.00 0.1320000 75.3
2021-07-24 08:45:00 65.8 80.7 59.7 65.8 0.0 1.9 0.3 185.1 135.7 0.00 0.1250000 75.4
2021-07-24 08:50:00 65.9 83.1 60.6 65.9 0.0 0.0 0.0 139.5 0.0 0.00 0.1560000 75.4
2021-07-24 08:55:00 66.2 81.8 60.5 66.2 0.0 0.8 0.1 187.0 162.2 0.00 0.1600000 75.5
2021-07-24 09:00:00 66.4 81.8 60.7 66.4 0.0 1.2 0.1 81.3 55.7 0.00 0.1930000 75.5
2021-07-24 09:05:00 66.6 81.8 60.9 66.6 0.0 0.0 0.0 143.7 0.0 0.00 0.1150000 75.6
2021-07-24 09:10:00 68.0 75.9 60.1 68.0 0.0 1.2 0.1 51.3 166.6 0.00 0.5200000 75.6
2021-07-24 09:15:00 69.0 72.4 59.8 69.0 1.9 2.4 0.4 3.1 18.5 0.00 0.5690000 75.7
2021-07-24 09:20:00 69.0 76.1 61.2 69.0 0.0 2.4 0.5 124.9 358.1 0.00 0.1500000 75.7
2021-07-24 09:25:00 68.1 75.8 60.2 68.1 0.0 2.6 0.3 1.2 32.3 0.00 0.1700000 75.8
2021-07-24 09:30:00 68.5 75.0 60.3 68.5 0.0 0.0 0.0 204.2 0.0 0.00 0.1920000 75.9
2021-07-24 09:35:00 68.6 76.4 60.9 68.6 0.0 0.0 0.0 281.2 0.0 0.00 0.2360000 76.0
2021-07-24 09:40:00 68.7 74.8 60.4 68.7 0.0 0.0 0.0 227.3 0.0 0.00 0.2640000 76.1
2021-07-24 09:45:00 68.6 73.8 59.9 68.6 0.0 0.0 0.0 230.4 0.0 0.00 0.2500000 76.2
2021-07-24 09:50:00 69.2 73.0 60.2 69.2 0.0 0.0 0.0 242.5 0.0 0.00 0.2700000 76.3
2021-07-24 09:55:00 69.5 72.4 60.2 69.5 0.0 0.0 0.0 73.5 0.0 0.00 0.3310000 76.4
2021-07-24 10:00:00 70.1 73.7 61.3 70.1 0.0 0.0 0.0 62.3 0.0 0.00 0.3610000 76.5
2021-07-24 10:05:00 70.8 68.4 59.8 70.8 0.8 0.8 0.0 277.7 277.7 0.00 0.4400000 76.6
2021-07-24 10:10:00 70.8 69.4 60.3 70.8 1.2 2.1 0.5 162.9 219.5 0.00 0.2310000 76.6
2021-07-24 10:15:00 71.2 72.3 61.9 71.2 1.5 3.7 0.6 213.3 204.9 0.00 0.6030000 76.7
2021-07-24 10:20:00 71.5 70.4 61.4 71.5 0.0 2.6 0.5 190.1 237.2 0.00 0.4810000 76.8
2021-07-24 10:25:00 71.8 66.4 60.0 71.8 2.4 2.6 0.9 246.6 208.1 0.00 0.5010000 77.0
2021-07-24 10:30:00 71.5 68.6 60.7 71.5 0.0 3.8 1.5 152.9 240.7 0.00 0.7760000 77.1
2021-07-24 10:35:00 71.6 69.2 60.9 71.6 0.0 2.8 0.7 195.3 208.2 0.00 0.4620000 77.2
2021-07-24 10:40:00 72.2 68.1 61.1 72.2 0.8 3.0 1.1 205.7 184.2 0.00 0.4490000 77.4
2021-07-24 10:45:00 72.6 68.7 61.8 72.6 0.0 2.4 0.4 249.7 208.7 0.00 0.1620000 77.5
2021-07-24 10:50:00 72.8 65.9 60.8 72.8 0.0 2.1 0.2 76.9 57.6 0.00 0.4640000 77.7
2021-07-24 10:55:00 72.4 66.5 60.6 72.4 1.9 3.3 1.1 157.7 145.0 0.00 0.4120000 77.9
2021-07-24 11:00:00 72.4 62.2 58.7 72.4 0.0 3.8 0.9 156.9 170.0 0.00 0.6140000 78.1
2021-07-24 11:05:00 74.3 60.8 59.9 74.3 0.0 0.0 0.0 109.8 0.0 0.00 0.7680000 78.2
2021-07-24 11:10:00 75.0 60.4 60.4 75.0 0.0 2.1 0.6 192.6 200.1 0.00 0.7380000 78.4
2021-07-24 11:15:00 75.3 56.8 58.9 75.3 1.9 3.1 1.1 34.5 130.5 0.00 0.7440000 78.6
2021-07-24 11:20:00 75.5 57.7 59.5 75.5 0.0 3.3 0.8 152.2 186.5 0.00 0.7500000 78.8
2021-07-24 11:25:00 75.2 60.1 60.4 75.2 2.6 3.7 2.0 275.3 172.4 0.00 0.7530000 79.0
2021-07-24 11:30:00 75.3 55.7 58.4 75.3 0.0 3.3 1.4 0.2 203.3 0.00 0.7740000 79.2
2021-07-24 11:35:00 75.7 57.0 59.4 75.7 0.0 3.8 1.1 185.5 203.6 0.00 0.8350000 79.4
2021-07-24 11:40:00 75.7 57.4 59.6 75.7 0.0 3.8 1.4 299.0 193.2 0.00 0.5150000 79.7
2021-07-24 11:45:00 74.8 57.8 58.9 74.8 0.0 4.0 1.4 112.7 228.7 0.00 0.4740000 79.9
2021-07-24 11:50:00 75.1 56.5 58.6 75.1 0.0 2.8 0.6 179.6 145.0 0.00 1.0520000 80.2
2021-07-24 11:55:00 76.3 56.5 59.7 76.3 0.0 1.0 0.1 101.6 44.2 0.00 1.0930000 80.4
2021-07-24 12:00:00 76.6 58.6 61.0 76.6 3.3 3.3 1.1 220.5 187.9 0.00 0.5550000 80.6
2021-07-24 12:05:00 76.3 58.9 60.8 76.3 3.7 4.2 2.1 150.0 156.3 0.00 0.8590000 80.8
2021-07-24 12:10:00 76.6 52.5 57.9 76.6 0.0 4.4 1.6 101.5 147.7 0.00 0.9120000 81.0
2021-07-24 12:15:00 77.5 58.1 61.6 77.5 3.7 3.7 1.3 181.2 178.6 0.00 0.7810000 81.2
2021-07-24 12:20:00 76.5 52.3 57.7 76.5 0.0 4.0 2.0 316.1 217.5 0.00 0.8470000 81.5
2021-07-24 12:25:00 77.4 54.3 59.6 77.4 0.8 3.7 1.2 67.9 140.3 0.00 0.8270000 81.7
2021-07-24 12:30:00 77.3 55.1 60.0 77.3 3.1 3.5 1.9 183.0 198.8 0.00 0.8210000 81.9
2021-07-24 12:35:00 77.1 57.0 60.7 77.1 3.7 4.4 3.2 214.1 183.2 0.00 0.8180000 82.2
2021-07-24 12:40:00 76.6 53.7 58.6 76.6 5.8 6.0 2.3 229.0 228.4 0.00 0.8190000 82.4
2021-07-24 12:45:00 77.4 63.2 63.9 77.4 1.5 5.8 1.4 0.1 211.2 0.00 0.8190000 82.7
2021-07-24 12:50:00 78.2 51.7 58.9 78.2 1.7 4.6 1.7 59.5 188.8 0.00 0.8270000 82.9
2021-07-24 12:55:00 78.8 52.4 59.9 78.8 4.6 5.6 1.5 145.0 143.6 0.00 0.8320000 83.1
2021-07-24 13:00:00 78.8 52.6 60.0 78.8 2.1 5.3 1.7 179.2 195.3 0.00 0.8250000 83.3
2021-07-24 13:05:00 78.2 49.9 58.0 78.2 4.9 7.2 3.6 263.9 223.3 0.00 0.8250000 83.6
2021-07-24 13:10:00 78.5 53.6 60.3 78.5 2.2 5.3 2.8 83.4 198.7 0.00 0.8270000 83.8
2021-07-24 13:15:00 78.4 53.5 60.1 78.4 5.5 6.5 3.9 156.0 194.0 0.00 0.8300000 84.0
2021-07-24 13:20:00 78.9 48.3 57.7 78.9 4.2 7.8 3.2 167.5 217.9 0.00 0.8280000 84.2
2021-07-24 13:25:00 78.6 45.8 55.9 78.6 5.3 8.1 3.6 261.7 191.5 0.00 0.8310000 84.4
2021-07-24 13:30:00 78.9 44.7 55.5 78.9 4.2 6.7 3.7 220.8 208.0 0.00 0.0580000 84.6
2021-07-24 13:35:00 78.9 49.4 58.3 78.9 4.4 7.6 3.9 195.4 187.7 0.00 0.8310000 84.8
2021-07-24 13:40:00 79.0 50.9 59.3 79.0 4.0 7.8 3.7 194.7 186.0 0.00 0.8430000 85.0
2021-07-24 13:45:00 78.9 44.5 55.5 78.9 3.1 5.8 3.5 168.6 211.5 0.00 0.0700000 85.2
2021-07-24 13:50:00 79.6 44.3 56.0 79.6 3.5 6.3 3.4 84.0 186.2 0.00 0.8590000 85.4
2021-07-24 13:55:00 80.2 49.9 59.8 81.0 1.7 6.5 3.1 312.7 202.2 0.00 0.8060000 85.6
2021-07-24 14:00:00 79.4 39.8 52.9 79.4 7.6 9.9 5.4 141.7 181.2 0.00 0.8760000 85.7
2021-07-24 14:05:00 79.0 45.2 56.0 79.0 3.3 7.6 4.3 224.1 200.9 0.00 0.8840000 85.9
2021-07-24 14:10:00 78.2 46.4 56.0 78.2 2.4 6.2 3.6 255.6 194.1 0.00 0.8480000 86.1
2021-07-24 14:15:00 79.2 45.9 56.6 79.2 4.9 6.5 3.6 194.0 181.1 0.00 0.6690000 86.2
2021-07-24 14:20:00 79.2 48.6 58.1 79.2 3.8 6.3 4.5 187.4 225.7 0.00 0.8710000 86.4
2021-07-24 14:25:00 80.0 46.5 57.7 80.5 2.1 6.3 3.4 171.2 183.6 0.00 0.8680000 86.5
2021-07-24 14:30:00 80.8 47.1 58.7 81.2 3.0 5.6 3.6 220.7 186.2 0.00 0.8710000 86.6
2021-07-24 14:35:00 80.3 43.8 56.3 80.5 3.5 7.4 4.2 165.0 190.0 0.00 0.8680000 86.8
2021-07-24 14:40:00 80.7 48.1 59.3 81.2 3.1 5.6 3.1 160.6 180.4 0.00 0.8660000 86.9
2021-07-24 14:45:00 81.4 42.8 56.6 81.2 3.3 5.6 3.2 171.4 150.5 0.00 0.8600000 87.0
2021-07-24 14:50:00 80.8 47.0 58.6 81.2 4.7 8.0 4.8 200.8 222.1 0.00 0.8450000 87.1
2021-07-24 14:55:00 80.4 43.4 56.1 80.5 3.7 8.5 5.1 191.1 203.3 0.00 0.8400000 87.3
2021-07-24 15:00:00 80.9 43.1 56.4 80.9 10.8 13.0 5.3 218.0 210.8 0.00 0.8380000 87.4
2021-07-24 15:05:00 80.3 45.2 57.2 80.6 6.0 8.3 4.9 154.7 208.2 0.00 0.8590000 87.5
2021-07-24 15:10:00 80.5 49.7 59.9 81.2 3.3 8.8 5.3 160.0 192.7 0.00 0.4000000 87.6
2021-07-24 15:15:00 80.3 44.7 56.8 80.5 4.6 8.8 4.1 241.8 187.3 0.00 0.3730000 87.7
2021-07-24 15:20:00 79.2 46.1 56.7 79.2 2.6 5.3 3.2 215.7 197.5 0.00 0.3620000 87.9
2021-07-24 15:25:00 79.7 46.6 57.5 79.7 3.8 6.5 4.0 228.6 200.8 0.00 0.7840000 87.9
2021-07-24 15:30:00 80.2 43.0 55.6 80.3 3.1 8.3 5.1 278.3 234.4 0.00 0.7470000 88.0
2021-07-24 15:35:00 81.1 43.5 56.8 81.0 3.8 10.3 4.6 219.1 230.3 0.00 0.7230000 88.1
2021-07-24 15:40:00 81.3 42.8 56.5 81.2 3.1 6.2 3.6 222.9 217.9 0.00 0.7110000 88.1
2021-07-24 15:45:00 81.8 44.8 58.3 81.9 3.7 4.4 2.9 207.8 200.6 0.00 0.6990000 88.1
2021-07-24 15:50:00 81.6 41.6 56.0 81.3 5.1 6.7 4.7 168.0 217.3 0.00 0.5770000 88.2
2021-07-24 15:55:00 81.4 42.5 56.4 81.2 3.7 8.8 4.2 166.4 194.6 0.00 0.6710000 88.3
2021-07-24 16:00:00 81.6 43.5 57.3 81.5 4.9 6.0 4.2 236.6 209.5 0.00 0.6630000 88.3
2021-07-24 16:05:00 82.0 43.3 57.5 81.9 5.1 6.2 4.0 127.8 183.2 0.00 0.6520000 88.3
2021-07-24 16:10:00 81.7 40.7 55.5 81.3 7.1 8.5 4.8 178.1 217.5 0.00 0.6450000 88.3
2021-07-24 16:15:00 81.7 40.8 55.6 81.3 8.0 8.1 5.6 258.8 204.0 0.00 0.6300000 88.3
2021-07-24 16:20:00 81.5 44.6 57.9 81.6 6.3 9.0 4.6 190.7 228.0 0.00 0.6200000 88.3
2021-07-24 16:25:00 82.1 42.3 56.9 81.8 2.4 6.5 3.9 215.6 211.8 0.00 0.6100000 88.2
2021-07-24 16:30:00 81.9 41.7 56.4 81.6 4.0 8.1 3.9 183.5 190.1 0.00 0.5950000 88.1
2021-07-24 16:35:00 82.0 42.0 56.6 81.6 3.8 10.1 4.3 220.2 220.6 0.00 0.5860000 88.0
2021-07-24 16:40:00 81.6 42.3 56.5 81.4 3.5 9.2 5.1 344.5 224.5 0.00 0.5730000 87.9
2021-07-24 16:45:00 81.5 40.6 55.2 81.1 4.7 7.8 4.5 198.4 201.3 0.00 0.5640000 87.8
2021-07-24 16:50:00 82.1 39.4 55.0 82.1 3.5 6.3 3.9 210.7 207.9 0.00 0.5790000 87.7
2021-07-24 16:55:00 81.9 40.8 55.8 81.5 3.7 9.2 4.4 107.9 183.1 0.00 0.5590000 87.6
2021-07-24 17:00:00 82.3 43.4 57.8 82.1 6.2 6.2 3.9 302.0 195.7 0.00 0.5790000 87.5
2021-07-24 17:05:00 81.8 42.9 57.1 81.6 2.2 7.8 4.9 210.2 183.6 0.00 0.5550000 87.4
2021-07-24 17:10:00 81.8 42.7 56.9 81.6 5.5 6.9 4.4 210.7 199.3 0.00 0.5460000 87.3
2021-07-24 17:15:00 81.4 43.9 57.4 81.4 2.2 6.5 4.3 220.6 218.2 0.00 0.2660000 87.3
2021-07-24 17:20:00 80.8 42.7 56.0 80.8 3.1 7.1 3.5 196.1 191.4 0.00 0.2340000 87.2
2021-07-24 17:25:00 80.4 44.4 56.8 80.6 2.4 8.5 4.3 263.6 214.9 0.00 0.5780000 87.2
2021-07-24 17:30:00 80.2 44.7 56.8 80.5 3.1 8.8 4.6 194.3 211.9 0.00 0.2560000 87.1
2021-07-24 17:35:00 79.6 46.4 57.2 79.6 9.2 9.2 4.9 205.3 222.6 0.00 0.2110000 87.0
2021-07-24 17:40:00 79.2 46.0 56.6 79.2 4.6 7.6 3.8 212.1 214.3 0.00 0.1960000 87.0
2021-07-24 17:45:00 78.7 46.4 56.4 78.7 3.5 6.3 3.3 198.4 219.1 0.00 0.1350000 86.9
2021-07-24 17:50:00 78.5 47.3 56.8 78.5 5.8 6.3 4.1 228.5 206.1 0.00 0.1040000 86.9
2021-07-24 17:55:00 78.3 48.3 57.2 78.3 5.1 7.8 3.6 196.3 219.0 0.00 0.2410000 86.8
2021-07-24 18:00:00 78.9 47.8 57.5 78.9 3.3 6.5 4.0 213.2 208.6 0.00 0.3410000 86.7
2021-07-24 18:05:00 79.6 45.8 56.9 79.6 8.0 9.4 4.5 234.0 202.9 0.00 0.3140000 86.6
2021-07-24 18:10:00 79.6 45.3 56.6 79.6 6.3 8.0 5.3 258.7 205.3 0.00 0.3460000 86.6
2021-07-24 18:15:00 79.4 46.6 57.1 79.4 4.6 7.8 4.1 241.9 210.6 0.00 0.2810000 86.5
2021-07-24 18:20:00 78.8 47.6 57.2 78.8 2.8 8.0 4.4 208.0 190.1 0.00 0.1610000 86.4
2021-07-24 18:25:00 78.0 48.7 57.2 78.0 3.8 6.2 3.6 225.8 220.5 0.00 0.1200000 86.3
2021-07-24 18:30:00 77.5 50.1 57.5 77.5 2.4 5.8 3.7 201.6 235.3 0.00 0.1090000 86.2
2021-07-24 18:35:00 77.3 51.1 57.8 77.3 4.0 8.1 3.7 200.7 205.9 0.00 0.1610000 86.1
2021-07-24 18:40:00 77.6 51.8 58.4 77.6 2.2 6.5 2.9 223.6 211.3 0.00 0.2600000 86.0
2021-07-24 18:45:00 78.0 52.0 59.0 78.0 4.0 6.0 2.9 187.1 218.0 0.00 0.1750000 85.9
2021-07-24 18:50:00 78.1 50.5 58.2 78.1 4.2 8.8 3.5 192.5 208.9 0.00 0.1950000 85.8
2021-07-24 18:55:00 77.9 51.9 58.9 77.9 2.6 6.9 3.4 173.8 194.0 0.00 0.2060000 85.7
2021-07-24 19:00:00 77.9 51.1 58.4 77.9 3.5 5.8 3.1 177.5 200.2 0.00 0.2010000 85.6
2021-07-24 19:05:00 78.2 50.8 58.6 78.2 5.1 5.3 3.3 208.0 191.3 0.00 0.1950000 85.5
2021-07-24 19:10:00 77.8 49.2 57.2 77.8 4.7 6.9 4.3 246.0 203.3 0.00 0.1770000 85.4
2021-07-24 19:15:00 77.7 50.5 57.9 77.7 1.7 8.0 3.3 277.2 200.3 0.00 0.1540000 85.3
2021-07-24 19:20:00 77.8 51.8 58.7 77.8 0.0 6.9 2.4 261.6 207.5 0.00 0.1400000 85.2
2021-07-24 19:25:00 77.5 51.8 58.4 77.5 2.1 4.4 2.5 214.6 197.6 0.00 0.1270000 85.1
2021-07-24 19:30:00 77.5 50.9 57.9 77.5 2.2 3.5 2.0 192.1 178.0 0.00 0.1140000 85.0
2021-07-24 19:35:00 77.2 52.4 58.4 77.2 3.5 7.1 2.3 205.2 190.3 0.00 0.0980000 84.9
2021-07-24 19:40:00 76.6 53.0 58.2 76.6 2.1 4.2 1.9 195.5 189.9 0.00 0.0570000 84.7
2021-07-24 19:45:00 76.4 54.2 58.7 76.4 3.0 3.5 1.6 213.6 183.3 0.00 0.0460000 84.6
2021-07-24 19:50:00 76.1 55.7 59.1 76.1 0.0 3.8 1.6 194.4 189.4 0.00 0.0390000 84.5
2021-07-24 19:55:00 75.8 55.8 58.9 75.8 1.5 3.8 1.4 210.3 203.5 0.00 0.0280000 84.4
2021-07-24 20:00:00 75.5 56.2 58.9 75.5 1.5 3.8 1.6 154.4 205.5 0.00 0.0180000 84.3
2021-07-24 20:05:00 75.7 56.1 58.9 75.7 0.0 3.8 1.5 160.6 172.7 0.00 0.0110000 84.1
2021-07-24 20:10:00 75.3 56.3 58.7 75.3 2.1 3.3 1.5 132.2 183.1 0.00 0.0040000 84.0
2021-07-24 20:15:00 75.2 55.6 58.2 75.2 1.7 5.5 2.1 159.9 200.2 0.00 0.0020000 83.9
2021-07-24 20:20:00 75.2 56.7 58.7 75.2 1.5 3.7 1.3 209.5 203.3 0.00 0.0010000 83.8
2021-07-24 20:25:00 74.5 57.5 58.5 74.5 0.0 1.7 0.5 175.7 214.1 0.00 0.0000000 83.7
2021-07-24 20:30:00 74.6 58.1 58.9 74.6 0.0 1.5 0.2 197.7 187.8 0.00 0.0000000 83.6
2021-07-24 20:35:00 74.5 58.8 59.2 74.5 1.7 2.2 0.5 121.9 154.5 0.00 0.0000000 83.5
2021-07-24 20:40:00 74.3 59.5 59.3 74.3 0.0 2.1 0.6 202.9 193.1 0.00 0.0000000 83.3
2021-07-24 20:45:00 74.0 60.4 59.4 74.0 0.0 0.0 0.0 193.6 0.0 0.00 0.0000000 83.2
2021-07-24 20:50:00 73.8 60.9 59.5 73.8 0.0 2.4 0.3 215.9 226.8 0.00 0.0000000 83.1
2021-07-24 20:55:00 73.5 61.3 59.4 73.5 1.9 2.2 0.2 221.3 236.0 0.00 0.0000000 83.0
2021-07-24 21:00:00 73.4 62.2 59.7 73.4 0.0 1.2 0.0 223.5 189.9 0.00 0.0000000 82.9
2021-07-24 21:05:00 73.3 62.3 59.6 73.3 0.0 2.4 0.5 216.3 240.3 0.00 0.0000000 82.8
2021-07-24 21:10:00 73.4 62.8 60.0 73.4 1.9 2.2 0.5 256.8 257.2 0.00 0.0000000 82.7
2021-07-24 21:15:00 73.0 63.1 59.7 73.0 0.0 1.5 0.1 214.0 243.2 0.00 0.0000000 82.6
2021-07-24 21:20:00 73.0 63.7 59.9 73.0 0.0 0.0 0.0 219.8 0.0 0.00 0.0000000 82.5
2021-07-24 21:25:00 73.0 64.0 60.1 73.0 0.0 0.0 0.0 238.6 0.0 0.00 0.0000000 82.4
2021-07-24 21:30:00 72.9 64.1 60.1 72.9 0.0 0.0 0.0 210.8 0.0 0.00 0.0000000 82.3
2021-07-24 21:35:00 72.7 64.0 59.8 72.7 0.0 0.0 0.0 236.8 0.0 0.00 0.0000000 82.2
2021-07-24 21:40:00 72.6 64.1 59.8 72.6 0.0 0.0 0.0 214.3 0.0 0.00 0.0000000 82.1
2021-07-24 21:45:00 72.3 63.3 59.1 72.3 0.8 1.2 0.1 211.6 229.8 0.00 0.0000000 82.0
2021-07-24 21:50:00 72.6 62.8 59.2 72.6 0.0 1.5 0.1 233.2 261.0 0.00 0.0000000 81.9

Data is courtesy of the NM Climate Center. DO NOT USE IN LEGAL PROCEEDINGS.